AirNav   Bose ProFlight Series 2 Headset
 
 1466 users online  

0II1 Unsicker Airport
Bremen, Indiana, USA

GOING TO BREMEN?


FAA INFORMATION EFFECTIVE 02 JANUARY 2020

Location

FAA Identifier: 0II1
Lat/Long: 41-25-41.1360N 086-09-11.9720W
41-25.685600N 086-09.199533W
41.4280933,-86.1533256
(estimated)
Elevation: 816 ft. / 249 m (estimated)
Variation: 02W (1985)
From city: 1 mile NW of BREMEN, IN
Time zone: UTC -5 (UTC -4 during Daylight Saving Time)
Zip code: 46902

Airport Operations

Airport use: Private use. Permission required prior to landing
Activation date: 07/1982
Control tower: no
ARTCC: CHICAGO CENTER
FSS: TERRE HAUTE FLIGHT SERVICE STATION
Attendance: UNATNDD
Wind indicator: yes
Segmented circle: no

Airport Communications

WX AWOS-3 at C65 (8 nm SW): 133.025 (574-935-3854)
WX AWOS-3 at ASW (17 nm SE): 121.125 (574-269-7035)
WX ASOS at GSH (17 nm E): 121.45 (574-642-4231)
WX ASOS at SBN (18 nm NW): PHONE 574-251-2652
WX AWOS-3 at EKM (19 nm N): 124.475 (574-264-9002)

Nearby radio navigation aids

VOR radial/distance  VOR name  Freq  Var
GSHr224/8.1GOSHEN VORTAC113.7000E
GIJr160/21.7GIPPER VORTAC115.4000E
OXIr074/23.2KNOX VOR/DME115.6000E
OLKr293/(31.5)WEBSTER LAKE VOR110.4003W

 
NDB name  Hdg/Dist  Freq  Var  ID
LA PORTE102/28.135603WIUL .. ..- .-..
STURGIS238/39.738204WIRS .. .-. ...

Airport Services

Runway Information

Runway 9/27

Dimensions: 1300 x 60 ft. / 396 x 18 m
Surface: turf
RUNWAY 9  RUNWAY 27
Traffic pattern: leftleft
Obstructions: pline, markednone

Airport Ownership and Management from official FAA records

Ownership: Privately-owned
Owner: ROBERT UNSICKER
3310 FIR RD.
BREMEN, IN 46506-9703
Phone 574-546-2789
Manager: ROBERT UNSICKER
3310 FIR RD.
BREMEN, IN 46506-9703
Phone 574-546-2789

Airport Operational Statistics

Aircraft based on the field: 1
Single engine airplanes: 1
    

Additional Remarks

FOR CD CTC CHICAGO ARTCC AT 630-906-8921.

Instrument Procedures

There are no published instrument procedures at 0II1.

Some nearby airports with instrument procedures:

C65 - Plymouth Municipal Airport (8 nm SW)
C03 - Nappanee Municipal Airport (10 nm E)
KASW - Warsaw Municipal Airport (17 nm SE)
KGSH - Goshen Municipal Airport (17 nm E)
KSBN - South Bend International Airport (18 nm NW)
KEKM - Elkhart Municipal Airport (19 nm N)
 
Loc | Ops | Rwys | IFR | FBO | Links
Com | Nav | Svcs | Stats | Notes
Area around 0II1 (Unsicker Airport)
 
Road maps at: MapQuest Bing Google
 
Aerial photo
No photo
 
Sectional chart

 
Airport distance calculator
Flying to Unsicker Airport? Find the distance to fly.

From to 0II1

Sunrise and sunset
Times for 28-Jan-2020
 Local
(UTC-5)
 Zulu
(UTC)
Morning civil twilight07:3112:31
Sunrise08:0113:01
Sunset17:5422:54
Evening civil twilight18:2423:24

Current date and time
Zulu (UTC)  28-Jan-2020 23:41:42
Local (UTC-5)  28-Jan-2020 18:41:42
 
METAR
KC65 
8nm SW 
282315Z AUTO 29005KT 7SM FEW011 BKN018 OVC028 M00/M02 A3008 RMK A01
KASW 
17nm SE 
282315Z AUTO 27003KT 5SM BR SCT009 OVC027 00/M01 A3009 RMK AO2
KGSH 
18nm E 
282316Z AUTO 27005KT 5SM BR FEW009 BKN017 OVC023 00/M02 A3008 RMK AO2 T00001017
KSBN 
18nm NW 
282315Z 32005KT 7SM FEW008 BKN013 OVC020 00/M02 A3009 RMK AO2 SNE14 P0000 T00001017
KEKM 
19nm N 
282250Z 29006KT 10SM SCT011 OVC026 00/M01 A3008 RMK AO2
TAF
KSBN 
18nm NW 
281737Z 2818/2918 26007KT P6SM VCSH OVC015 FM290000 32004KT P6SM OVC020
NOTAMs
Click for the latest NOTAMs
NOTAMs are issued by the DoD/FAA and will open in a separate window not controlled by AirNav.

 

 
 

Would you like to see your business listed on this page?

 If your business provides an interesting product or service to pilots, flight crews, aircraft, or users of the Unsicker Airport, you should consider listing it here.  To start the listing process, click on the button below
 
Add a business
 

Other Pages about Unsicker Airport

Update a link
 
Copyright © AirNav, LLC. All rights reserved. Privacy Policy  Contact